createdAt,value
2019-02-05T00:00:54.805Z,8.60
2019-02-05T00:03:24.128Z,8.67
2019-02-05T00:05:54.302Z,7.07
2019-02-05T00:08:23.655Z,6.40
2019-02-05T00:10:52.999Z,7.37
2019-02-05T00:13:22.446Z,7.83
2019-02-05T00:15:51.833Z,8.10
2019-02-05T00:18:21.205Z,8.43
2019-02-05T00:20:50.600Z,8.17
2019-02-05T00:23:20.049Z,10.97
2019-02-05T00:25:49.688Z,8.83
2019-02-05T00:28:19.031Z,9.57
2019-02-05T00:30:48.491Z,12.93
2019-02-05T00:33:18.727Z,7.63
2019-02-05T00:35:48.064Z,6.50
2019-02-05T00:38:17.573Z,7.83
2019-02-05T00:40:47.229Z,10.20
2019-02-05T00:43:17.376Z,6.70
2019-02-05T00:45:46.747Z,7.50
2019-02-05T00:48:16.176Z,8.93
2019-02-05T00:50:45.645Z,8.73
2019-02-05T00:53:15.151Z,9.77
2019-02-05T00:55:44.863Z,10.20
2019-02-05T00:58:14.276Z,10.07
2019-02-05T01:00:43.622Z,11.10
2019-02-05T01:03:12.974Z,7.60
2019-02-05T01:05:42.402Z,8.80
2019-02-05T01:08:11.816Z,8.43
2019-02-05T01:10:41.423Z,8.40
2019-02-05T01:13:10.809Z,9.83
2019-02-05T01:15:40.115Z,9.63
2019-02-05T01:18:09.589Z,9.53
2019-02-05T01:20:38.936Z,10.27
2019-02-05T01:23:08.300Z,10.03
2019-02-05T01:25:37.641Z,10.63
2019-02-05T01:28:07.007Z,10.60
2019-02-05T01:30:36.419Z,10.80
2019-02-05T01:33:05.791Z,8.40
2019-02-05T01:35:35.136Z,11.37
2019-02-05T01:38:04.692Z,11.57
2019-02-05T01:40:34.248Z,10.47
2019-02-05T01:43:03.904Z,9.73
2019-02-05T01:45:33.253Z,10.70
2019-02-05T01:48:02.752Z,13.70
2019-02-05T01:50:32.184Z,11.87
2019-02-05T01:53:01.911Z,13.20
2019-02-05T01:55:31.293Z,10.63
2019-02-05T01:58:00.640Z,11.63
2019-02-05T02:00:35.385Z,13.00
2019-02-05T02:03:05.790Z,9.87
2019-02-05T02:05:35.170Z,14.53
2019-02-05T02:08:04.848Z,10.57
2019-02-05T02:10:34.335Z,14.57
2019-02-05T02:13:03.655Z,12.13
2019-02-05T02:15:33.019Z,12.23
2019-02-05T02:18:02.409Z,15.33
2019-02-05T02:20:31.848Z,14.50
2019-02-05T02:23:01.170Z,17.43
2019-02-05T02:25:30.493Z,14.03
2019-02-05T02:27:59.800Z,17.57
2019-02-05T02:30:34.725Z,13.43
2019-02-05T02:33:04.176Z,16.43
2019-02-05T02:35:34.034Z,15.83
2019-02-05T02:38:03.423Z,15.23
2019-02-05T02:40:32.849Z,19.73
2019-02-05T02:43:02.191Z,15.93
2019-02-05T02:45:31.568Z,13.97
2019-02-05T02:48:01.423Z,15.87
2019-02-05T02:50:31.133Z,24.47
2019-02-05T02:53:00.517Z,18.10
2019-02-05T02:55:29.856Z,18.40
2019-02-05T02:57:59.211Z,19.67
2019-02-05T03:00:28.610Z,18.97
2019-02-05T03:02:57.987Z,22.20
2019-02-05T03:05:27.586Z,19.23
2019-02-05T03:07:57.092Z,20.93
2019-02-05T03:10:30.697Z,19.57
2019-02-05T03:13:00.126Z,17.20
2019-02-05T03:15:29.629Z,21.50
2019-02-05T03:17:59.124Z,22.80
2019-02-05T03:20:28.536Z,21.63
2019-02-05T03:22:58.007Z,20.83
2019-02-05T03:25:27.529Z,20.60
2019-02-05T03:27:56.990Z,22.47
2019-02-05T03:30:26.464Z,23.33
2019-02-05T03:32:56.524Z,19.07
2019-02-05T03:35:26.087Z,26.07
2019-02-05T03:37:55.591Z,22.17
2019-02-05T03:41:04.111Z,18.93
2019-02-05T03:43:34.383Z,22.53
2019-02-05T03:46:06.752Z,23.67
2019-02-05T03:48:37.033Z,19.93
2019-02-05T03:51:42.773Z,25.30
2019-02-05T03:54:55.050Z,23.17
2019-02-05T03:57:55.382Z,19.80
2019-02-05T04:01:00.302Z,26.97
2019-02-05T04:04:26.119Z,25.63
2019-02-05T04:07:40.806Z,23.43
2019-02-05T04:10:49.817Z,21.40
2019-02-05T04:13:50.262Z,23.23
2019-02-05T04:17:18.461Z,22.30
2019-02-05T04:20:39.137Z,26.97
2019-02-05T04:23:56.128Z,22.43
2019-02-05T04:27:09.269Z,24.37
2019-02-05T04:30:03.552Z,25.70
2019-02-05T04:32:52.213Z,24.33
2019-02-05T04:36:05.738Z,21.33
2019-02-05T04:39:22.535Z,24.17
2019-02-05T04:42:08.694Z,22.77
2019-02-05T04:45:14.698Z,22.80
2019-02-05T04:48:20.910Z,20.93
2019-02-05T04:51:16.659Z,22.97
2019-02-05T04:54:12.661Z,22.17
2019-02-05T04:57:22.512Z,23.00
2019-02-05T05:00:33.169Z,21.33
2019-02-05T05:03:33.785Z,21.73
2019-02-05T05:06:32.168Z,23.83
2019-02-05T05:09:30.870Z,25.20
2019-02-05T05:12:00.274Z,20.73
2019-02-05T05:14:29.663Z,21.77
2019-02-05T05:16:59.552Z,22.27
2019-02-05T05:19:28.915Z,19.33
2019-02-05T05:21:58.526Z,21.63
2019-02-05T05:24:27.951Z,20.33
2019-02-05T05:26:57.660Z,20.13
2019-02-05T05:29:27.002Z,20.37
2019-02-05T05:31:56.460Z,24.50
2019-02-05T05:34:25.874Z,25.13
2019-02-05T05:36:53.556Z,25.47
2019-02-05T05:39:22.971Z,27.23
2019-02-05T05:41:52.509Z,20.13
2019-02-05T05:44:21.903Z,21.33
2019-02-05T05:46:51.334Z,22.40
2019-02-05T05:49:20.915Z,22.93
2019-02-05T05:51:50.325Z,21.03
2019-02-05T05:54:19.730Z,21.10
2019-02-05T05:56:49.069Z,22.13
2019-02-05T05:59:18.448Z,23.20
2019-02-05T06:01:48.109Z,23.13
2019-02-05T06:04:17.659Z,19.47
2019-02-05T06:06:47.030Z,25.10
2019-02-05T06:09:16.480Z,24.23
2019-02-05T06:11:45.903Z,21.90
2019-02-05T06:14:15.512Z,29.33
2019-02-05T06:16:44.914Z,24.67
2019-02-05T06:19:14.419Z,22.20
2019-02-05T06:21:44.124Z,24.83
2019-02-05T06:24:13.541Z,20.93
2019-02-05T06:26:43.928Z,24.53
2019-02-05T06:29:14.002Z,22.73
2019-02-05T06:31:46.734Z,23.53
2019-02-05T06:34:16.212Z,23.73
2019-02-05T06:36:46.026Z,24.87
2019-02-05T06:39:15.491Z,19.53
2019-02-05T06:41:45.130Z,23.73
2019-02-05T06:44:14.504Z,25.00
2019-02-05T06:46:43.908Z,25.57
2019-02-05T06:49:13.405Z,19.23
2019-02-05T06:51:43.229Z,22.17
2019-02-05T06:54:12.744Z,21.37
2019-02-05T06:56:42.524Z,23.73
2019-02-05T06:59:12.170Z,22.40
2019-02-05T07:01:41.572Z,16.53
2019-02-05T07:04:11.072Z,17.93
2019-02-05T07:06:40.412Z,20.67
2019-02-05T07:09:10.710Z,18.90
2019-02-05T07:11:40.041Z,23.13
2019-02-05T07:14:09.360Z,19.27
2019-02-05T07:16:38.690Z,17.10
2019-02-05T07:19:07.981Z,20.13
2019-02-05T07:21:37.393Z,21.40
2019-02-05T07:24:06.953Z,17.57
2019-02-05T07:26:36.320Z,19.17
2019-02-05T07:29:06.180Z,20.70
2019-02-05T07:31:35.520Z,25.03
2019-02-05T07:34:04.905Z,19.93
2019-02-05T07:36:34.333Z,20.97
2019-02-05T07:39:05.645Z,16.97
2019-02-05T07:41:35.060Z,19.20
2019-02-05T07:44:04.770Z,17.07
2019-02-05T07:46:34.201Z,25.40
2019-02-05T07:49:03.802Z,20.27
2019-02-05T07:51:33.233Z,18.57
2019-02-05T07:54:02.751Z,20.97
2019-02-05T07:56:32.467Z,20.97
2019-02-05T07:59:09.901Z,18.77
2019-02-05T08:01:32.916Z,18.70
2019-02-05T08:04:02.323Z,18.50
2019-02-05T08:06:31.772Z,18.67
2019-02-05T08:09:01.161Z,21.40
2019-02-05T08:11:30.544Z,22.40
2019-02-05T08:14:00.245Z,20.60
2019-02-05T08:16:29.651Z,20.17
2019-02-05T08:18:59.057Z,20.67
2019-02-05T08:21:28.421Z,20.33
2019-02-05T08:23:57.823Z,20.83
2019-02-05T08:26:27.882Z,19.53
2019-02-05T08:28:57.287Z,19.07
2019-02-05T08:31:26.705Z,18.07
2019-02-05T08:33:56.141Z,18.87
2019-02-05T08:36:25.555Z,20.67
2019-02-05T08:38:55.194Z,22.37
2019-02-05T08:41:24.613Z,23.73
2019-02-05T08:43:54.019Z,19.57
2019-02-05T08:46:23.387Z,17.40
2019-02-05T08:48:53.109Z,19.93
2019-02-05T08:51:22.527Z,17.97
2019-02-05T08:53:51.923Z,21.27
2019-02-05T08:56:21.582Z,18.03
2019-02-05T08:58:51.001Z,15.97
2019-02-05T09:01:20.448Z,18.23
2019-02-05T09:03:49.913Z,18.90
2019-02-05T09:06:19.309Z,20.23
2019-02-05T09:08:48.640Z,16.23
2019-02-05T09:11:18.120Z,17.53
2019-02-05T09:13:47.572Z,18.50
2019-02-05T09:16:17.114Z,19.17
2019-02-05T09:18:46.536Z,19.43
2019-02-05T09:21:16.240Z,16.83
2019-02-05T09:23:45.631Z,19.03
2019-02-05T09:26:15.080Z,19.27
2019-02-05T09:28:44.480Z,16.00
2019-02-05T09:31:13.890Z,22.17
2019-02-05T09:33:43.308Z,17.33
2019-02-05T09:36:12.722Z,19.63
2019-02-05T09:38:42.313Z,19.33
2019-02-05T09:41:11.657Z,16.70
2019-02-05T09:43:40.993Z,19.33
2019-02-05T09:46:08.198Z,21.83
2019-02-05T09:48:37.594Z,19.30
2019-02-05T09:51:07.027Z,15.80
2019-02-05T09:53:36.405Z,21.13
2019-02-05T09:56:05.740Z,19.60
2019-02-05T09:58:35.110Z,19.33
2019-02-05T10:01:05.397Z,17.33
2019-02-05T10:03:34.861Z,23.07
2019-02-05T10:06:04.505Z,20.63
2019-02-05T10:08:33.810Z,19.77
2019-02-05T10:11:03.507Z,20.90
2019-02-05T10:13:32.892Z,19.97
2019-02-05T10:16:02.323Z,19.57
2019-02-05T10:18:31.727Z,20.97
2019-02-05T10:21:01.160Z,17.67
2019-02-05T10:23:30.553Z,16.63
2019-02-05T10:25:59.932Z,16.77
2019-02-05T10:28:29.407Z,18.07
2019-02-05T10:30:58.852Z,19.20
2019-02-05T10:33:28.307Z,18.30
2019-02-05T10:35:57.740Z,14.53
2019-02-05T10:38:27.195Z,18.77
2019-02-05T10:40:56.587Z,18.93
2019-02-05T10:43:26.371Z,18.90
2019-02-05T10:45:55.758Z,19.73
2019-02-05T10:48:25.165Z,19.37
2019-02-05T10:50:54.561Z,19.40
2019-02-05T10:53:23.992Z,18.03
2019-02-05T10:55:53.393Z,19.87
2019-02-05T10:58:22.887Z,16.83
2019-02-05T11:00:52.455Z,20.13
2019-02-05T11:03:22.058Z,17.50
2019-02-05T11:05:52.565Z,17.13
2019-02-05T11:08:22.005Z,19.13
2019-02-05T11:10:51.729Z,21.53
2019-02-05T11:13:21.178Z,17.97
2019-02-05T11:15:50.985Z,17.83
2019-02-05T11:18:20.407Z,21.50
2019-02-05T11:20:49.971Z,16.10
2019-02-05T11:23:19.436Z,21.90
2019-02-05T11:25:48.777Z,20.17
2019-02-05T11:28:18.192Z,18.63
2019-02-05T11:30:47.652Z,21.43
2019-02-05T11:33:17.043Z,19.37
2019-02-05T11:35:46.447Z,17.10
2019-02-05T11:38:15.878Z,20.57
2019-02-05T11:40:45.255Z,19.10
2019-02-05T11:43:14.812Z,20.67
2019-02-05T11:45:44.258Z,21.07
2019-02-05T11:48:16.677Z,19.73
2019-02-05T11:50:46.185Z,17.37
2019-02-05T11:53:15.714Z,19.70
2019-02-05T11:55:45.249Z,20.90
2019-02-05T11:58:15.347Z,20.93
2019-02-05T12:01:01.617Z,21.10
2019-02-05T12:03:31.014Z,20.67
2019-02-05T12:06:01.535Z,23.80
2019-02-05T12:08:30.939Z,22.73
2019-02-05T12:11:00.346Z,23.10
2019-02-05T12:13:29.752Z,18.67
2019-02-05T12:16:00.972Z,19.77
2019-02-05T12:18:30.400Z,20.70
2019-02-05T12:20:59.848Z,19.83
2019-02-05T12:23:29.600Z,22.33
2019-02-05T12:25:59.183Z,21.27
2019-02-05T12:28:28.726Z,23.83
2019-02-05T12:30:58.422Z,22.03
2019-02-05T12:33:28.203Z,20.37
2019-02-05T12:35:57.724Z,19.73
2019-02-05T12:38:27.095Z,19.83
2019-02-05T12:40:56.603Z,20.60
2019-02-05T12:43:26.115Z,19.00
2019-02-05T12:45:55.498Z,25.77
2019-02-05T12:48:25.273Z,19.10
2019-02-05T12:50:54.814Z,19.90
2019-02-05T12:53:24.414Z,17.87
2019-02-05T12:55:53.849Z,19.90
2019-02-05T12:58:23.303Z,19.13
2019-02-05T13:00:57.623Z,17.53
2019-02-05T13:03:24.847Z,18.37
2019-02-05T13:05:54.258Z,18.10
2019-02-05T13:08:23.639Z,19.87
2019-02-05T13:10:53.584Z,18.50
2019-02-05T13:13:22.906Z,21.37
2019-02-05T13:15:52.296Z,21.33
2019-02-05T13:18:23.096Z,18.70
2019-02-05T13:20:52.496Z,18.73
2019-02-05T13:23:22.033Z,16.93
2019-02-05T13:25:51.404Z,17.33
2019-02-05T13:28:20.780Z,20.70
2019-02-05T13:31:07.360Z,18.43
2019-02-05T13:33:27.315Z,21.20
2019-02-05T13:35:56.754Z,20.67
2019-02-05T13:38:26.152Z,19.30
2019-02-05T13:40:55.567Z,18.97
2019-02-05T13:43:25.178Z,19.57
2019-02-05T13:45:54.899Z,20.23
2019-02-05T13:48:24.317Z,22.67
2019-02-05T13:50:53.745Z,19.47
2019-02-05T13:53:23.086Z,19.87
2019-02-05T13:55:52.729Z,19.40
2019-02-05T13:58:23.515Z,19.93
2019-02-05T14:00:54.843Z,18.47
2019-02-05T14:03:24.444Z,19.70
2019-02-05T14:05:53.937Z,19.23
2019-02-05T14:08:23.417Z,19.20
2019-02-05T14:10:52.835Z,17.83
2019-02-05T14:13:22.147Z,26.60
2019-02-05T14:15:53.365Z,19.40
2019-02-05T14:18:23.280Z,17.27
2019-02-05T14:20:52.731Z,20.00
2019-02-05T14:23:22.260Z,19.93
2019-02-05T14:25:51.595Z,19.63
2019-02-05T14:28:20.971Z,17.43
2019-02-05T14:30:52.500Z,19.40
2019-02-05T14:33:22.380Z,19.07
2019-02-05T14:35:51.786Z,20.33
2019-02-05T14:38:21.162Z,18.37
2019-02-05T14:40:50.524Z,20.13
2019-02-05T14:43:19.975Z,18.27
2019-02-05T14:45:49.418Z,21.83
2019-02-05T14:48:18.793Z,16.10
2019-02-05T14:50:48.475Z,22.00
2019-02-05T14:53:17.852Z,19.40
2019-02-05T14:55:47.280Z,17.00
2019-02-05T14:58:17.523Z,24.90
2019-02-05T15:00:46.984Z,20.17
2019-02-05T15:03:16.580Z,19.83
2019-02-05T15:05:46.835Z,20.97
2019-02-05T15:08:17.612Z,17.23
2019-02-05T15:10:46.990Z,19.47
2019-02-05T15:13:16.918Z,17.53
2019-02-05T15:15:46.413Z,18.47
2019-02-05T15:18:18.181Z,18.07
2019-02-05T15:20:49.018Z,15.60
2019-02-05T15:23:18.409Z,15.80
2019-02-05T15:25:48.057Z,15.97
2019-02-05T15:28:17.441Z,20.93
2019-02-05T15:30:46.868Z,19.43
2019-02-05T15:33:51.788Z,19.83
2019-02-05T15:36:23.315Z,23.20
2019-02-05T15:38:52.681Z,19.00
2019-02-05T15:41:22.097Z,19.63
2019-02-05T15:43:51.536Z,25.67
2019-02-05T15:46:20.879Z,20.90
2019-02-05T15:48:50.726Z,21.57
2019-02-05T15:51:20.132Z,19.17
2019-02-05T15:53:49.479Z,19.53
2019-02-05T15:56:18.869Z,21.80
2019-02-05T15:58:48.292Z,20.63
2019-02-05T16:01:20.879Z,19.57
2019-02-05T16:03:50.220Z,20.90
2019-02-05T16:06:19.737Z,21.23
2019-02-05T16:08:49.174Z,18.23
2019-02-05T16:11:25.858Z,18.53
2019-02-05T16:13:55.724Z,25.10
2019-02-05T16:16:25.468Z,19.30
2019-02-05T16:18:54.819Z,18.13
2019-02-05T16:21:24.277Z,17.53
2019-02-05T16:23:53.719Z,18.10
2019-02-05T16:26:23.183Z,20.20
2019-02-05T16:28:52.586Z,16.60
2019-02-05T16:31:22.485Z,23.03
2019-02-05T16:33:51.916Z,18.80
2019-02-05T16:36:21.507Z,18.97
2019-02-05T16:38:50.857Z,21.80
2019-02-05T16:41:20.344Z,17.90
2019-02-05T16:43:49.838Z,19.00
2019-02-05T16:46:19.679Z,23.77
2019-02-05T16:48:49.116Z,20.20
2019-02-05T16:51:18.611Z,23.13
2019-02-05T16:53:48.004Z,17.03
2019-02-05T16:56:17.944Z,19.97
2019-02-05T16:58:48.145Z,23.27
2019-02-05T17:01:18.566Z,22.73
2019-02-05T17:03:48.052Z,22.63
2019-02-05T17:06:17.421Z,23.17
2019-02-05T17:08:47.003Z,21.33
2019-02-05T17:11:17.029Z,26.20
2019-02-05T17:13:46.569Z,24.97
2019-02-05T17:16:16.182Z,19.47
2019-02-05T17:18:45.892Z,19.67
2019-02-05T17:21:15.355Z,25.63
2019-02-05T17:23:44.756Z,23.40
2019-02-05T17:26:14.165Z,18.53
2019-02-05T17:28:43.678Z,20.10
2019-02-05T17:31:13.521Z,22.60
2019-02-05T17:33:42.917Z,25.60
2019-02-05T17:36:12.353Z,20.97
2019-02-05T17:38:41.917Z,21.57
2019-02-05T17:41:11.290Z,21.83
2019-02-05T17:43:40.892Z,21.47
2019-02-05T17:46:10.416Z,21.00
2019-02-05T17:48:40.007Z,19.07
2019-02-05T17:51:09.515Z,22.00
2019-02-05T17:53:39.043Z,21.93
2019-02-05T17:56:08.481Z,21.43
2019-02-05T17:58:37.921Z,21.33
2019-02-05T18:01:10.991Z,22.33
2019-02-05T18:03:40.408Z,24.13
2019-02-05T18:06:09.886Z,24.07
2019-02-05T18:08:39.533Z,22.43
2019-02-05T18:11:09.098Z,21.27
2019-02-05T18:13:39.830Z,22.43
2019-02-05T18:16:15.576Z,20.37
2019-02-05T18:18:45.177Z,21.20
2019-02-05T18:21:17.638Z,21.37
2019-02-05T18:23:47.132Z,22.13
2019-02-05T18:26:16.825Z,22.40
2019-02-05T18:28:46.397Z,26.10
2019-02-05T18:31:15.912Z,26.57
2019-02-05T18:33:45.329Z,29.33
2019-02-05T18:36:14.930Z,24.43
2019-02-05T18:38:44.346Z,32.57
2019-02-05T18:41:13.992Z,34.30
2019-02-05T18:43:43.475Z,29.97
2019-02-05T18:46:12.978Z,28.17
2019-02-05T18:48:42.468Z,32.17
2019-02-05T18:51:11.918Z,33.17
2019-02-05T18:53:41.397Z,41.47
2019-02-05T18:56:10.958Z,38.57
2019-02-05T18:58:40.358Z,37.77
2019-02-05T19:01:09.757Z,29.27
2019-02-05T19:03:39.243Z,35.40
2019-02-05T19:06:08.656Z,38.40
2019-02-05T19:08:38.137Z,36.97
2019-02-05T19:11:08.079Z,29.23
2019-02-05T19:13:37.504Z,32.63
2019-02-05T19:16:06.968Z,29.33
2019-02-05T19:18:36.335Z,45.13
2019-02-05T19:21:05.686Z,55.47
2019-02-05T19:23:35.108Z,41.50
2019-02-05T19:26:27.421Z,39.47
2019-02-05T19:31:39.738Z,37.53
2019-02-05T19:34:09.491Z,36.40
2019-02-05T19:36:38.794Z,27.43
2019-02-05T19:39:09.222Z,27.43
2019-02-05T19:41:38.710Z,26.03
2019-02-05T19:44:08.210Z,28.93
2019-02-05T19:47:05.432Z,22.33
2019-02-05T19:49:47.351Z,24.20
2019-02-05T19:52:16.689Z,26.07
2019-02-05T19:54:46.160Z,26.50
2019-02-05T19:57:15.569Z,25.40
2019-02-05T19:59:45.349Z,31.60
2019-02-05T20:02:14.718Z,27.00
2019-02-05T20:04:44.278Z,26.30
2019-02-05T20:07:13.610Z,30.03
2019-02-05T20:09:42.973Z,27.57
2019-02-05T20:12:12.368Z,33.80
2019-02-05T20:14:41.763Z,29.10
2019-02-05T20:17:11.161Z,32.03
2019-02-05T20:19:40.444Z,26.40
2019-02-05T20:22:09.749Z,24.87
2019-02-05T20:24:39.049Z,26.90
2019-02-05T20:27:08.445Z,21.90
2019-02-05T20:29:37.793Z,28.53
2019-02-05T20:32:07.392Z,27.67
2019-02-05T20:34:36.707Z,26.73
2019-02-05T20:37:08.963Z,25.73
2019-02-05T20:39:38.309Z,27.77
2019-02-05T20:42:07.732Z,30.27
2019-02-05T20:44:37.243Z,27.97
2019-02-05T20:47:07.027Z,27.10
2019-02-05T20:49:36.426Z,25.60
2019-02-05T20:52:05.946Z,31.47
2019-02-05T20:54:35.355Z,27.33
2019-02-05T20:57:04.772Z,26.53
2019-02-05T20:59:34.230Z,26.57
2019-02-05T21:02:03.604Z,28.77
2019-02-05T21:04:35.431Z,30.07
2019-02-05T21:07:04.602Z,25.70
2019-02-05T21:09:33.987Z,26.67
2019-02-05T21:12:03.312Z,26.00
2019-02-05T21:14:32.743Z,25.50
2019-02-05T21:17:02.092Z,30.37
2019-02-05T21:19:31.941Z,25.57
2019-02-05T21:22:01.238Z,27.07
2019-02-05T21:24:30.629Z,29.00
2019-02-05T21:26:59.951Z,28.93
2019-02-05T21:29:29.333Z,24.03
2019-02-05T21:31:58.723Z,30.60
2019-02-05T21:34:28.071Z,28.90
2019-02-05T21:36:57.459Z,24.93
2019-02-05T21:39:26.844Z,30.63
2019-02-05T21:41:56.199Z,31.53
2019-02-05T21:44:25.579Z,25.87
2019-02-05T21:46:54.945Z,28.33
2019-02-05T21:49:24.297Z,24.93
2019-02-05T21:51:53.709Z,28.13
2019-02-05T21:54:23.088Z,25.40
2019-02-05T21:56:52.452Z,28.77
2019-02-05T21:59:21.827Z,28.30
2019-02-05T22:01:51.221Z,30.63
2019-02-05T22:04:27.265Z,37.77
2019-02-05T22:06:51.651Z,25.70
2019-02-05T22:09:21.021Z,29.83
2019-02-05T22:11:50.405Z,26.80
2019-02-05T22:14:19.778Z,28.50
2019-02-05T22:16:49.142Z,23.27
2019-02-05T22:19:20.997Z,23.97
2019-02-05T22:21:50.028Z,25.70
2019-02-05T22:24:19.411Z,21.60
2019-02-05T22:26:48.791Z,21.27
2019-02-05T22:29:18.173Z,22.40
2019-02-05T22:31:47.636Z,25.53
2019-02-05T22:34:17.720Z,19.03
2019-02-05T22:36:47.147Z,22.23
2019-02-05T22:39:16.646Z,22.50
2019-02-05T22:41:46.290Z,21.37
2019-02-05T22:44:15.718Z,22.17
2019-02-05T22:46:45.463Z,25.03
2019-02-05T22:49:14.771Z,21.50
2019-02-05T22:51:44.964Z,16.67
2019-02-05T22:54:14.284Z,20.17
2019-02-05T22:56:43.722Z,20.07
2019-02-05T22:59:13.397Z,18.73
2019-02-05T23:01:57.977Z,23.50
2019-02-05T23:05:04.313Z,19.10
2019-02-05T23:07:33.753Z,17.73
2019-02-05T23:10:26.664Z,18.50
2019-02-05T23:13:01.354Z,18.53
2019-02-05T23:15:31.201Z,17.30
2019-02-05T23:18:00.600Z,17.83
2019-02-05T23:20:30.411Z,15.90
2019-02-05T23:22:59.981Z,18.70
2019-02-05T23:25:29.307Z,18.03
2019-02-05T23:27:58.735Z,17.47
2019-02-05T23:30:31.037Z,15.83
2019-02-05T23:33:00.517Z,15.63
2019-02-05T23:35:32.520Z,18.03
2019-02-05T23:38:01.263Z,18.33
2019-02-05T23:40:30.585Z,14.03
2019-02-05T23:43:00.040Z,15.37
2019-02-05T23:45:29.387Z,18.07
2019-02-05T23:47:58.794Z,13.73
2019-02-05T23:50:28.431Z,14.07
2019-02-05T23:52:57.811Z,15.33
2019-02-05T23:55:27.220Z,15.00
2019-02-05T23:57:56.541Z,11.33
